createdAt,value
2022-12-01T00:01:19.058Z,36.78
2022-12-01T00:03:45.786Z,36.47
2022-12-01T00:06:15.876Z,36.05
2022-12-01T00:09:02.959Z,35.40
2022-12-01T00:11:29.878Z,37.92
2022-12-01T00:13:56.589Z,36.72
2022-12-01T00:16:23.305Z,36.38
2022-12-01T00:18:51.614Z,35.70
2022-12-01T00:21:20.774Z,36.38
2022-12-01T00:23:50.177Z,35.80
2022-12-01T00:26:18.312Z,35.53
2022-12-01T00:28:49.435Z,38.33
2022-12-01T00:31:16.311Z,38.50
2022-12-01T00:33:43.199Z,36.38
2022-12-01T00:36:10.197Z,36.40
2022-12-01T00:38:37.111Z,39.50
2022-12-01T00:41:04.519Z,37.92
2022-12-01T00:43:31.858Z,39.70
2022-12-01T00:45:58.880Z,36.92
2022-12-01T00:48:25.594Z,39.72
2022-12-01T00:50:53.460Z,39.22
2022-12-01T00:53:21.266Z,37.63
2022-12-01T00:55:48.061Z,38.83
2022-12-01T00:58:15.077Z,38.25
2022-12-01T01:00:43.140Z,38.35
2022-12-01T01:03:11.179Z,37.75
2022-12-01T01:05:39.543Z,38.10
2022-12-01T01:08:11.513Z,40.95
2022-12-01T01:10:39.630Z,39.72
2022-12-01T01:13:06.620Z,38.15
2022-12-01T01:15:33.799Z,37.78
2022-12-01T01:18:00.912Z,37.03
2022-12-01T01:20:28.034Z,37.38
2022-12-01T01:22:55.014Z,38.05
2022-12-01T01:25:22.681Z,36.88
2022-12-01T01:27:49.853Z,37.60
2022-12-01T01:30:17.037Z,36.65
2022-12-01T01:32:43.888Z,35.08
2022-12-01T01:35:10.730Z,34.90
2022-12-01T01:37:37.493Z,34.13
2022-12-01T01:40:04.757Z,36.95
2022-12-01T01:42:31.460Z,36.35
2022-12-01T01:44:59.274Z,36.08
2022-12-01T01:47:36.864Z,37.58
2022-12-01T01:50:09.959Z,36.83
2022-12-01T01:52:41.498Z,37.80
2022-12-01T01:55:09.169Z,36.63
2022-12-01T01:57:36.721Z,35.42
2022-12-01T02:00:09.717Z,35.05
2022-12-01T02:02:45.073Z,36.03
2022-12-01T02:05:22.599Z,34.35
2022-12-01T02:07:52.190Z,33.35
2022-12-01T02:10:22.643Z,32.15
2022-12-01T02:13:30.006Z,33.00
2022-12-01T02:16:09.159Z,32.15
2022-12-01T02:19:08.199Z,32.22
2022-12-01T02:21:48.138Z,31.83
2022-12-01T02:24:50.526Z,31.67
2022-12-01T02:27:29.596Z,34.20
2022-12-01T02:30:02.346Z,33.42
2022-12-01T02:32:50.216Z,34.80
2022-12-01T02:35:24.880Z,32.67
2022-12-01T02:38:40.594Z,33.20
2022-12-01T02:41:19.968Z,34.13
2022-12-01T02:44:20.392Z,34.03
2022-12-01T02:47:13.477Z,33.88
2022-12-01T02:49:55.121Z,33.20
2022-12-01T02:52:24.486Z,32.72
2022-12-01T02:54:53.153Z,33.97
2022-12-01T02:57:20.218Z,32.67
2022-12-01T02:59:52.531Z,32.60
2022-12-01T03:02:42.064Z,32.83
2022-12-01T03:05:26.351Z,31.30
2022-12-01T03:08:15.912Z,31.08
2022-12-01T03:10:59.415Z,31.88
2022-12-01T03:13:46.481Z,32.15
2022-12-01T03:16:27.353Z,30.55
2022-12-01T03:18:57.253Z,31.83
2022-12-01T03:21:32.490Z,31.65
2022-12-01T03:24:05.588Z,29.33
2022-12-01T03:26:35.401Z,31.92
2022-12-01T03:29:07.637Z,28.88
2022-12-01T03:31:41.173Z,29.80
2022-12-01T03:34:14.897Z,29.23
2022-12-01T03:36:56.618Z,31.33
2022-12-01T03:39:29.033Z,30.48
2022-12-01T03:42:18.328Z,29.98
2022-12-01T03:44:56.901Z,30.52
2022-12-01T03:47:26.650Z,30.30
2022-12-01T03:49:54.391Z,31.20
2022-12-01T03:52:49.503Z,31.95
2022-12-01T03:55:25.205Z,30.38
2022-12-01T03:58:10.366Z,30.63
2022-12-01T04:00:37.854Z,29.95
2022-12-01T04:03:05.634Z,30.80
2022-12-01T04:05:34.684Z,33.20
2022-12-01T04:08:01.740Z,31.80
2022-12-01T04:10:28.453Z,31.95
2022-12-01T04:12:59.390Z,31.25
2022-12-01T04:15:27.122Z,29.38
2022-12-01T04:17:54.259Z,28.60
2022-12-01T04:20:21.795Z,30.63
2022-12-01T04:22:48.983Z,28.55
2022-12-01T04:25:16.010Z,30.17
2022-12-01T04:27:42.777Z,27.83
2022-12-01T04:30:10.948Z,28.40
2022-12-01T04:32:42.745Z,29.25
2022-12-01T04:35:12.361Z,29.20
2022-12-01T04:37:39.646Z,29.90
2022-12-01T04:40:07.218Z,31.17
2022-12-01T04:42:34.187Z,29.30
2022-12-01T04:45:01.007Z,31.63
2022-12-01T04:47:27.716Z,30.70
2022-12-01T04:49:54.838Z,31.30
2022-12-01T04:52:21.612Z,30.67
2022-12-01T04:54:48.332Z,30.00
2022-12-01T04:57:15.184Z,28.90
2022-12-01T04:59:41.880Z,29.80
2022-12-01T05:02:08.626Z,30.80
2022-12-01T05:04:38.600Z,29.83
2022-12-01T05:07:05.409Z,30.38
2022-12-01T05:09:32.216Z,29.98
2022-12-01T05:11:58.987Z,28.00
2022-12-01T05:14:25.718Z,28.85
2022-12-01T05:16:52.510Z,28.00
2022-12-01T05:19:37.933Z,28.52
2022-12-01T05:22:04.706Z,27.80
2022-12-01T05:24:31.364Z,28.95
2022-12-01T05:26:58.198Z,28.60
2022-12-01T05:29:24.853Z,28.70
2022-12-01T05:31:51.653Z,27.95
2022-12-01T05:34:18.711Z,27.45
2022-12-01T05:36:45.402Z,25.55
2022-12-01T05:39:12.103Z,26.85
2022-12-01T05:41:39.067Z,26.23
2022-12-01T05:44:05.857Z,26.83
2022-12-01T05:46:32.648Z,26.48
2022-12-01T05:48:59.420Z,26.92
2022-12-01T05:51:26.125Z,27.48
2022-12-01T05:53:52.858Z,25.77
2022-12-01T05:56:19.814Z,27.77
2022-12-01T05:58:46.482Z,27.60
2022-12-01T06:01:13.138Z,26.60
2022-12-01T06:03:40.166Z,25.67
2022-12-01T06:06:06.991Z,26.25
2022-12-01T06:08:33.756Z,24.77
2022-12-01T06:11:00.734Z,25.10
2022-12-01T06:13:27.360Z,24.65
2022-12-01T06:16:02.936Z,25.17
2022-12-01T06:21:01.136Z,24.45
2022-12-01T06:23:30.634Z,24.90
2022-12-01T06:25:58.296Z,26.15
2022-12-01T06:28:25.035Z,25.50
2022-12-01T06:30:51.818Z,24.77
2022-12-01T06:33:18.623Z,25.35
2022-12-01T06:35:45.330Z,24.67
2022-12-01T06:38:12.102Z,25.85
2022-12-01T06:40:38.781Z,25.08
2022-12-01T06:43:06.476Z,24.02
2022-12-01T06:45:33.452Z,24.98
2022-12-01T06:48:00.326Z,23.60
2022-12-01T06:50:27.033Z,24.35
2022-12-01T06:52:54.630Z,24.30
2022-12-01T06:55:21.743Z,24.38
2022-12-01T06:57:48.693Z,24.77
2022-12-01T07:00:16.326Z,25.05
2022-12-01T07:02:43.483Z,22.98
2022-12-01T07:05:10.552Z,23.38
2022-12-01T07:07:39.570Z,22.63
2022-12-01T07:10:07.376Z,21.80
2022-12-01T07:12:34.054Z,24.10
2022-12-01T07:15:01.657Z,22.48
2022-12-01T07:17:28.986Z,21.83
2022-12-01T07:19:55.818Z,22.83
2022-12-01T07:22:22.819Z,23.00
2022-12-01T07:24:49.702Z,21.98
2022-12-01T07:27:16.439Z,21.63
2022-12-01T07:29:43.442Z,22.15
2022-12-01T07:32:10.266Z,21.52
2022-12-01T07:34:36.929Z,22.92
2022-12-01T07:37:03.897Z,21.52
2022-12-01T07:39:30.546Z,20.77
2022-12-01T07:41:57.275Z,22.77
2022-12-01T07:44:24.009Z,21.63
2022-12-01T07:46:50.660Z,21.88
2022-12-01T07:49:17.346Z,21.95
2022-12-01T07:51:44.145Z,21.80
2022-12-01T07:54:11.310Z,20.45
2022-12-01T07:56:37.997Z,21.73
2022-12-01T07:59:04.930Z,22.48
2022-12-01T08:01:31.720Z,22.83
2022-12-01T08:03:59.379Z,22.15
2022-12-01T08:06:27.286Z,23.25
2022-12-01T08:08:54.074Z,24.05
2022-12-01T08:11:24.925Z,23.33
2022-12-01T08:13:52.593Z,24.05
2022-12-01T08:16:22.293Z,24.45
2022-12-01T08:18:49.114Z,23.85
2022-12-01T08:21:17.935Z,24.33
2022-12-01T08:23:44.840Z,22.70
2022-12-01T08:26:14.463Z,22.08
2022-12-01T08:28:42.203Z,22.05
2022-12-01T08:31:18.787Z,22.73
2022-12-01T08:33:46.997Z,24.23
2022-12-01T08:36:14.061Z,25.77
2022-12-01T08:38:44.364Z,23.63
2022-12-01T08:41:12.016Z,23.25
2022-12-01T08:46:29.358Z,24.40
2022-12-01T08:48:57.616Z,21.77
2022-12-01T08:51:25.885Z,23.13
2022-12-01T08:53:55.766Z,23.98
2022-12-01T08:56:25.784Z,23.83
2022-12-01T08:58:54.195Z,22.77
2022-12-01T09:01:21.917Z,22.60
2022-12-01T09:03:48.974Z,23.38
2022-12-01T09:06:20.735Z,25.02
2022-12-01T09:08:48.131Z,24.00
2022-12-01T09:11:17.521Z,24.75
2022-12-01T09:13:48.623Z,25.67
2022-12-01T09:16:18.799Z,23.92
2022-12-01T09:18:46.779Z,24.05
2022-12-01T09:21:25.937Z,25.17
2022-12-01T09:23:53.774Z,25.60
2022-12-01T09:26:21.110Z,24.58
2022-12-01T09:28:50.339Z,25.08
2022-12-01T09:31:18.479Z,25.50
2022-12-01T09:33:45.519Z,26.73
2022-12-01T09:36:12.954Z,27.23
2022-12-01T09:38:40.106Z,25.52
2022-12-01T09:41:19.255Z,27.55
2022-12-01T09:43:58.024Z,28.08
2022-12-01T09:46:32.875Z,26.55
2022-12-01T09:49:02.681Z,27.50
2022-12-01T09:51:31.073Z,26.20
2022-12-01T09:53:59.374Z,25.80
2022-12-01T09:56:29.177Z,25.77
2022-12-01T09:59:02.123Z,26.42
2022-12-01T10:01:38.218Z,27.92
2022-12-01T10:04:30.737Z,27.13
2022-12-01T10:07:03.361Z,26.50
2022-12-01T10:09:38.579Z,25.58
2022-12-01T10:12:17.630Z,26.77
2022-12-01T10:14:46.616Z,25.90
2022-12-01T10:17:45.579Z,25.60
2022-12-01T10:20:38.910Z,26.35
2022-12-01T10:23:12.975Z,26.52
2022-12-01T10:26:08.880Z,28.33
2022-12-01T10:29:20.664Z,26.48
2022-12-01T10:32:00.417Z,26.20
2022-12-01T10:34:31.979Z,26.90
2022-12-01T10:36:59.197Z,24.65
2022-12-01T10:39:30.618Z,24.60
2022-12-01T10:42:25.006Z,25.38
2022-12-01T10:44:54.950Z,27.33
2022-12-01T10:47:25.533Z,26.35
2022-12-01T10:49:53.108Z,26.13
2022-12-01T10:52:41.636Z,24.70
2022-12-01T10:55:23.194Z,26.60
2022-12-01T10:57:51.103Z,26.25
2022-12-01T11:00:58.148Z,26.38
2022-12-01T11:03:22.905Z,26.63
2022-12-01T11:05:58.875Z,26.30
2022-12-01T11:08:50.453Z,27.40
2022-12-01T11:11:39.841Z,27.17
2022-12-01T11:14:21.493Z,28.15
2022-12-01T11:16:50.372Z,27.73
2022-12-01T11:19:34.841Z,27.20
2022-12-01T11:22:18.267Z,27.27
2022-12-01T11:25:06.055Z,28.65
2022-12-01T11:27:37.810Z,28.77
2022-12-01T11:30:24.762Z,27.77
2022-12-01T11:33:03.568Z,22.20
2022-12-01T11:35:33.432Z,24.45
2022-12-01T11:38:28.736Z,22.17
2022-12-01T11:40:54.042Z,22.45
2022-12-01T11:43:33.209Z,23.90
2022-12-01T11:46:04.892Z,23.38
2022-12-01T11:48:36.625Z,24.80
2022-12-01T11:51:06.341Z,24.90
2022-12-01T11:53:41.567Z,24.00
2022-12-01T11:56:23.309Z,27.25
2022-12-01T11:58:59.561Z,28.02
2022-12-01T12:02:00.012Z,27.02
2022-12-01T12:04:45.293Z,29.20
2022-12-01T12:07:48.666Z,28.13
2022-12-01T12:10:47.279Z,26.77
2022-12-01T12:13:35.894Z,28.30
2022-12-01T12:16:32.050Z,27.35
2022-12-01T12:19:06.723Z,26.30
2022-12-01T12:21:54.383Z,29.75
2022-12-01T12:24:39.550Z,26.88
2022-12-01T12:27:23.692Z,25.52
2022-12-01T12:30:15.237Z,28.08
2022-12-01T12:32:55.726Z,28.63
2022-12-01T12:35:25.637Z,29.60
2022-12-01T12:37:58.383Z,28.52
2022-12-01T12:40:49.582Z,29.58
2022-12-01T12:43:36.209Z,28.80
2022-12-01T12:46:11.914Z,28.63
2022-12-01T12:48:57.280Z,27.85
2022-12-01T12:51:46.432Z,27.85
2022-12-01T12:54:23.806Z,28.42
2022-12-01T12:56:55.610Z,28.20
2022-12-01T12:59:29.066Z,26.73
2022-12-01T13:02:18.705Z,27.50
2022-12-01T13:04:58.262Z,26.88
2022-12-01T13:07:37.119Z,27.70
2022-12-01T13:10:16.241Z,28.23
2022-12-01T13:12:51.486Z,34.90
2022-12-01T13:15:21.255Z,36.75
2022-12-01T13:17:57.454Z,33.95
2022-12-01T13:20:28.681Z,34.85
2022-12-01T13:22:57.166Z,27.88
2022-12-01T13:25:29.820Z,28.08
2022-12-01T13:28:00.339Z,27.65
2022-12-01T13:30:27.747Z,28.08
2022-12-01T13:33:01.049Z,26.17
2022-12-01T13:35:37.885Z,28.48
2022-12-01T13:38:13.889Z,27.40
2022-12-01T13:40:41.807Z,26.27
2022-12-01T13:43:20.874Z,26.70
2022-12-01T13:45:49.388Z,28.30
2022-12-01T13:48:41.913Z,26.98
2022-12-01T13:51:08.647Z,26.20
2022-12-01T13:53:52.554Z,25.42
2022-12-01T13:56:22.439Z,25.13
2022-12-01T13:58:51.940Z,24.67
2022-12-01T14:01:22.302Z,25.40
2022-12-01T14:04:03.150Z,24.33
2022-12-01T14:06:36.015Z,24.60
2022-12-01T14:09:15.757Z,25.27
2022-12-01T14:11:59.093Z,25.45
2022-12-01T14:14:28.452Z,26.85
2022-12-01T14:16:58.534Z,27.58
2022-12-01T14:19:34.493Z,27.02
2022-12-01T14:22:02.414Z,27.90
2022-12-01T14:24:41.512Z,26.73
2022-12-01T14:27:11.866Z,26.35
2022-12-01T14:29:43.034Z,26.85
2022-12-01T14:32:09.723Z,26.35
2022-12-01T14:34:38.081Z,26.33
2022-12-01T14:37:23.088Z,26.92
2022-12-01T14:39:56.159Z,26.35
2022-12-01T14:42:47.347Z,26.40
2022-12-01T14:45:18.662Z,26.58
2022-12-01T14:47:52.166Z,27.42
2022-12-01T14:50:25.244Z,26.98
2022-12-01T14:53:02.311Z,25.85
2022-12-01T14:55:41.538Z,27.13
2022-12-01T14:58:21.405Z,27.92
2022-12-01T15:00:56.461Z,27.05
2022-12-01T15:03:30.504Z,28.27
2022-12-01T15:05:58.833Z,27.88
2022-12-01T15:08:58.229Z,29.15
2022-12-01T15:11:25.487Z,27.88
2022-12-01T15:13:55.106Z,28.20
2022-12-01T15:16:28.915Z,27.02
2022-12-01T15:18:56.074Z,27.70
2022-12-01T15:21:31.920Z,27.73
2022-12-01T15:24:19.426Z,27.83
2022-12-01T15:26:50.091Z,27.60
2022-12-01T15:29:24.809Z,28.33
2022-12-01T15:31:55.751Z,27.93
2022-12-01T15:34:36.159Z,27.20
2022-12-01T15:37:14.662Z,26.95
2022-12-01T15:40:00.296Z,27.48
2022-12-01T15:42:39.434Z,27.55
2022-12-01T15:45:15.719Z,27.88
2022-12-01T15:47:43.450Z,28.00
2022-12-01T15:50:42.649Z,29.30
2022-12-01T15:53:32.833Z,29.30
2022-12-01T15:56:02.908Z,28.80
2022-12-01T15:58:32.918Z,29.38
2022-12-01T16:01:02.814Z,29.02
2022-12-01T16:03:29.862Z,28.98
2022-12-01T16:05:57.938Z,29.30
2022-12-01T16:08:27.711Z,28.50
2022-12-01T16:11:14.272Z,28.30
2022-12-01T16:14:06.824Z,29.40
2022-12-01T16:16:40.597Z,28.42
2022-12-01T16:19:10.323Z,28.75
2022-12-01T16:21:50.577Z,29.88
2022-12-01T16:24:32.737Z,27.73
2022-12-01T16:27:02.109Z,28.17
2022-12-01T16:29:31.547Z,28.48
2022-12-01T16:32:26.701Z,29.70
2022-12-01T16:34:54.102Z,29.65
2022-12-01T16:37:22.180Z,29.52
2022-12-01T16:39:49.535Z,30.00
2022-12-01T16:42:18.759Z,28.85
2022-12-01T16:44:46.778Z,29.40
2022-12-01T16:47:24.377Z,30.23
2022-12-01T16:49:52.304Z,31.27
2022-12-01T16:52:43.653Z,31.25
2022-12-01T16:55:21.050Z,30.73
2022-12-01T16:57:47.851Z,31.05
2022-12-01T17:00:15.024Z,31.15
2022-12-01T17:02:41.886Z,29.40
2022-12-01T17:05:11.435Z,31.25
2022-12-01T17:07:38.729Z,29.08
2022-12-01T17:10:06.826Z,32.65
2022-12-01T17:12:33.475Z,32.72
2022-12-01T17:15:00.288Z,32.72
2022-12-01T17:17:29.095Z,30.70
2022-12-01T17:19:56.007Z,31.27
2022-12-01T17:22:22.826Z,32.03
2022-12-01T17:24:50.589Z,31.60
2022-12-01T17:27:17.957Z,32.50
2022-12-01T17:29:46.410Z,32.90
2022-12-01T17:32:14.287Z,33.47
2022-12-01T17:34:41.069Z,32.70
2022-12-01T17:37:07.956Z,32.53
2022-12-01T17:39:34.963Z,32.50
2022-12-01T17:42:01.664Z,32.55
2022-12-01T17:44:28.398Z,31.17
2022-12-01T17:46:55.324Z,34.33
2022-12-01T17:49:22.460Z,35.30
2022-12-01T17:51:49.163Z,31.45
2022-12-01T17:54:15.941Z,31.77
2022-12-01T17:56:42.821Z,33.35
2022-12-01T17:59:09.616Z,33.38
2022-12-01T18:01:36.764Z,32.97
2022-12-01T18:04:03.817Z,34.05
2022-12-01T18:06:30.514Z,34.20
2022-12-01T18:08:59.014Z,34.53
2022-12-01T18:11:26.392Z,33.22
2022-12-01T18:13:53.375Z,34.20
2022-12-01T18:16:26.044Z,35.08
2022-12-01T18:18:54.200Z,31.45
2022-12-01T18:21:22.830Z,32.10
2022-12-01T18:24:01.281Z,32.78
2022-12-01T18:26:29.715Z,32.33
2022-12-01T18:28:59.345Z,33.20
2022-12-01T18:31:27.521Z,32.28
2022-12-01T18:33:54.301Z,33.50
2022-12-01T18:36:23.871Z,31.40
2022-12-01T18:38:51.732Z,33.22
2022-12-01T18:41:19.162Z,31.75
2022-12-01T18:43:46.493Z,31.85
2022-12-01T18:46:15.641Z,32.08
2022-12-01T18:48:51.122Z,32.50
2022-12-01T18:51:19.400Z,33.42
2022-12-01T18:53:46.812Z,33.13
2022-12-01T18:56:15.430Z,34.17
2022-12-01T18:58:42.441Z,32.80
2022-12-01T19:01:21.123Z,33.53
2022-12-01T19:03:48.165Z,34.35
2022-12-01T19:06:15.369Z,34.50
2022-12-01T19:08:42.245Z,34.60
2022-12-01T19:11:09.093Z,34.08
2022-12-01T19:13:36.240Z,34.90
2022-12-01T19:16:11.291Z,34.33
2022-12-01T19:18:38.691Z,35.10
2022-12-01T19:21:07.423Z,34.50
2022-12-01T19:23:34.688Z,34.38
2022-12-01T19:26:06.043Z,35.50
2022-12-01T19:28:34.413Z,34.28
2022-12-01T19:31:05.479Z,34.20
2022-12-01T19:33:32.285Z,35.03
2022-12-01T19:36:08.837Z,34.05
2022-12-01T19:38:35.862Z,33.80
2022-12-01T19:41:03.232Z,34.63
2022-12-01T19:43:30.106Z,34.35
2022-12-01T19:45:56.807Z,33.10
2022-12-01T19:48:23.509Z,33.17
2022-12-01T19:50:50.214Z,35.10
2022-12-01T19:53:16.875Z,33.60
2022-12-01T19:55:43.587Z,33.05
2022-12-01T19:58:10.349Z,34.00
2022-12-01T20:00:37.153Z,34.63
2022-12-01T20:03:03.985Z,33.22
2022-12-01T20:05:32.454Z,34.17
2022-12-01T20:07:59.261Z,34.20
2022-12-01T20:10:26.008Z,33.22
2022-12-01T20:12:52.934Z,35.55
2022-12-01T20:15:19.786Z,35.00
2022-12-01T20:17:46.539Z,33.85
2022-12-01T20:20:13.484Z,34.22
2022-12-01T20:22:40.231Z,34.08
2022-12-01T20:25:09.068Z,32.95
2022-12-01T20:27:36.655Z,34.20
2022-12-01T20:30:03.553Z,34.85
2022-12-01T20:32:30.255Z,35.97
2022-12-01T20:34:57.027Z,35.40
2022-12-01T20:37:23.670Z,33.40
2022-12-01T20:39:50.471Z,35.40
2022-12-01T20:42:19.351Z,34.53
2022-12-01T20:44:46.365Z,35.38
2022-12-01T20:47:14.543Z,35.45
2022-12-01T20:49:41.307Z,35.28
2022-12-01T20:52:07.983Z,34.08
2022-12-01T20:54:34.891Z,34.70
2022-12-01T20:57:01.834Z,35.13
2022-12-01T20:59:28.888Z,33.20
2022-12-01T21:01:55.929Z,34.22
2022-12-01T21:04:23.066Z,34.97
2022-12-01T21:06:50.147Z,35.15
2022-12-01T21:09:18.158Z,34.67
2022-12-01T21:12:08.682Z,33.80
2022-12-01T21:15:01.812Z,34.25
2022-12-01T21:17:33.108Z,34.30
2022-12-01T21:20:31.100Z,35.50
2022-12-01T21:23:15.980Z,35.75
2022-12-01T21:25:43.642Z,35.95
2022-12-01T21:28:26.233Z,35.45
2022-12-01T21:31:02.198Z,35.67
2022-12-01T21:33:35.215Z,36.40
2022-12-01T21:36:06.876Z,38.00
2022-12-01T21:38:33.808Z,36.75
2022-12-01T21:41:14.920Z,38.40
2022-12-01T21:43:41.628Z,37.92
2022-12-01T21:46:15.455Z,36.28
2022-12-01T21:48:43.240Z,35.95
2022-12-01T21:51:19.797Z,36.83
2022-12-01T21:53:47.445Z,36.67
2022-12-01T21:56:23.888Z,38.17
2022-12-01T21:58:51.592Z,37.08
2022-12-01T22:01:32.099Z,37.78
2022-12-01T22:04:02.380Z,35.80
2022-12-01T22:06:42.528Z,36.13
2022-12-01T22:09:26.918Z,37.15
2022-12-01T22:11:56.387Z,36.38
2022-12-01T22:14:36.517Z,37.28
2022-12-01T22:17:06.498Z,35.95
2022-12-01T22:19:39.115Z,36.30
2022-12-01T22:22:08.920Z,35.58
2022-12-01T22:24:40.355Z,36.25
2022-12-01T22:27:19.347Z,35.58
2022-12-01T22:29:48.290Z,34.55
2022-12-01T22:32:14.961Z,35.67
2022-12-01T22:34:49.971Z,35.75
2022-12-01T22:37:52.938Z,39.58
2022-12-01T22:40:42.750Z,38.60
2022-12-01T22:43:21.564Z,37.42
2022-12-01T22:45:49.480Z,37.97
2022-12-01T22:48:28.765Z,38.15
2022-12-01T22:50:56.951Z,36.42
2022-12-01T22:53:30.217Z,37.60
2022-12-01T22:56:00.104Z,39.05
2022-12-01T22:58:40.718Z,39.00
2022-12-01T23:01:28.420Z,38.33
2022-12-01T23:04:20.199Z,37.17
2022-12-01T23:06:59.858Z,37.53
2022-12-01T23:09:36.286Z,38.85
2022-12-01T23:12:22.414Z,39.40
2022-12-01T23:14:54.294Z,39.17
2022-12-01T23:17:22.844Z,42.97
2022-12-01T23:19:51.555Z,41.72
2022-12-01T23:22:19.072Z,40.83
2022-12-01T23:24:46.190Z,40.88
2022-12-01T23:27:15.057Z,41.17
2022-12-01T23:29:41.796Z,39.50
2022-12-01T23:32:10.320Z,39.88
2022-12-01T23:34:37.118Z,39.55
2022-12-01T23:37:03.788Z,40.80
2022-12-01T23:39:34.732Z,39.13
2022-12-01T23:42:03.301Z,42.65
2022-12-01T23:44:45.183Z,39.72
2022-12-01T23:47:28.262Z,40.63
2022-12-01T23:50:02.323Z,40.22
2022-12-01T23:52:34.345Z,40.63
2022-12-01T23:55:02.013Z,40.42
2022-12-01T23:57:30.791Z,41.20
